Time;durP1;ratioP1;P1;durP2;ratioP2;P2;SDS_P1;SDS_P2;PMS_P1;PMS_P2;Temp;Humidity;BMP_temperature;BMP_pressure;BME280_temperature;BME280_humidity;BME280_pressure;Samples;Min_cycle;Max_cycle;Signal;HPM_P1;HPM_P2
2021/09/09 00:00:52;;;;;;;0.40;0.20;;;17.50;86.70;;;;;;5053991;28;20459;-72
2021/09/09 00:03:18;;;;;;;0.40;0.20;;;17.50;99.90;;;;;;5055209;28;20173;-70
2021/09/09 00:05:44;;;;;;;0.40;0.20;;;17.50;99.90;;;;;;5055847;28;20565;-70
2021/09/09 00:08:10;;;;;;;0.40;0.10;;;17.50;99.90;;;;;;5055531;28;20226;-71
2021/09/09 00:10:36;;;;;;;0.40;0.20;;;17.50;99.90;;;;;;5056348;28;20433;-73
2021/09/09 00:13:02;;;;;;;0.40;0.10;;;17.50;99.90;;;;;;5055205;28;20502;-71
2021/09/09 00:15:27;;;;;;;0.40;0.20;;;17.60;95.30;;;;;;5054708;28;20184;-71
2021/09/09 00:17:53;;;;;;;0.40;0.20;;;17.60;76.70;;;;;;5054438;28;20431;-71
2021/09/09 00:20:18;;;;;;;0.40;0.20;;;17.60;70.90;;;;;;5054704;28;20269;-76
2021/09/09 00:22:44;;;;;;;0.40;0.20;;;17.50;91.20;;;;;;5054706;28;20204;-69
2021/09/09 00:25:10;;;;;;;0.40;0.20;;;17.50;96.30;;;;;;5054469;28;20205;-70
2021/09/09 00:27:36;;;;;;;0.40;0.20;;;17.50;99.90;;;;;;5054340;28;20330;-70
2021/09/09 00:30:01;;;;;;;0.40;0.20;;;17.40;99.90;;;;;;5054377;28;20203;-69
2021/09/09 00:32:27;;;;;;;0.40;0.20;;;17.30;99.90;;;;;;5054548;28;20435;-72
2021/09/09 00:34:55;;;;;;;0.40;0.10;;;17.40;99.90;;;;;;5054252;28;20657;-72
2021/09/09 00:37:21;;;;;;;0.40;0.20;;;17.40;99.90;;;;;;5054176;28;20589;-72
2021/09/09 00:39:46;;;;;;;0.40;0.20;;;17.40;99.90;;;;;;5053871;28;20653;-69
2021/09/09 00:42:12;;;;;;;0.40;0.10;;;17.40;99.90;;;;;;5052681;28;20217;-72
2021/09/09 00:44:37;;;;;;;0.40;0.20;;;17.30;99.90;;;;;;5054158;28;20173;-73
2021/09/09 00:47:04;;;;;;;0.40;0.20;;;17.30;99.90;;;;;;5054014;28;20188;-71
2021/09/09 00:49:31;;;;;;;0.50;0.40;;;17.30;99.90;;;;;;5054165;28;20544;-72
2021/09/09 00:51:57;;;;;;;0.40;0.20;;;17.30;99.90;;;;;;5054094;28;20750;-72
2021/09/09 00:54:23;;;;;;;0.40;0.20;;;17.20;99.90;;;;;;5053069;28;20934;-70
2021/09/09 00:56:50;;;;;;;0.40;0.30;;;17.10;99.90;;;;;;5053843;28;20239;-70
2021/09/09 00:59:17;;;;;;;0.40;0.20;;;17.10;99.90;;;;;;5053572;28;20927;-72
2021/09/09 01:01:42;;;;;;;0.40;0.20;;;17.10;99.90;;;;;;5052661;28;20466;-71
2021/09/09 01:04:08;;;;;;;0.40;0.10;;;17.00;99.90;;;;;;5053921;28;20900;-72
2021/09/09 01:06:34;;;;;;;0.40;0.20;;;17.10;99.90;;;;;;5053745;28;20185;-71
2021/09/09 01:09:01;;;;;;;0.40;0.20;;;17.10;99.90;;;;;;5053688;28;20181;-72
2021/09/09 01:11:27;;;;;;;0.40;0.20;;;17.00;99.90;;;;;;5054121;28;20180;-69
2021/09/09 01:14:02;;;;;;;0.40;0.17;;;17.00;99.90;;;;;;5053799;28;20427;-69
2021/09/09 01:16:28;;;;;;;0.40;0.20;;;17.00;99.90;;;;;;5053651;28;20217;-69
2021/09/09 01:18:53;;;;;;;0.40;0.20;;;17.00;99.90;;;;;;5053604;28;20518;-69
2021/09/09 01:21:19;;;;;;;0.40;0.20;;;17.00;99.90;;;;;;5053677;28;20278;-69
2021/09/09 01:23:48;;;;;;;0.40;0.20;;;16.90;99.90;;;;;;5053717;28;20208;-69
2021/09/09 01:26:14;;;;;;;0.40;0.20;;;16.80;99.90;;;;;;5053576;28;20189;-69
2021/09/09 01:28:40;;;;;;;0.40;0.20;;;16.90;99.90;;;;;;5053276;28;20434;-69
2021/09/09 01:31:06;;;;;;;0.40;0.20;;;16.90;99.90;;;;;;5052543;28;20181;-69
2021/09/09 01:33:31;;;;;;;0.40;0.20;;;16.80;99.90;;;;;;5053645;28;20904;-72
2021/09/09 01:35:57;;;;;;;0.40;0.20;;;16.80;99.90;;;;;;5053687;28;20497;-71
2021/09/09 01:38:23;;;;;;;0.40;0.20;;;16.90;99.90;;;;;;5053379;28;20639;-72
2021/09/09 01:40:50;;;;;;;0.40;0.20;;;16.90;99.90;;;;;;5053310;28;20219;-69
2021/09/09 01:43:16;;;;;;;0.40;0.10;;;16.80;99.90;;;;;;5053455;28;20482;-69
2021/09/09 01:45:42;;;;;;;0.40;0.20;;;16.80;99.90;;;;;;5053353;28;20419;-71
2021/09/09 01:48:08;;;;;;;0.50;0.30;;;16.80;99.90;;;;;;5053207;28;20426;-71
2021/09/09 01:50:35;;;;;;;0.40;0.10;;;16.70;99.90;;;;;;5052297;28;20526;-72
2021/09/09 01:53:00;;;;;;;0.40;0.20;;;16.60;99.90;;;;;;5056220;28;20485;-72
2021/09/09 01:55:26;;;;;;;0.40;0.20;;;16.60;99.90;;;;;;5057155;28;20489;-69
2021/09/09 01:57:52;;;;;;;0.40;0.20;;;16.60;99.90;;;;;;5056983;28;20188;-70
2021/09/09 02:00:17;;;;;;;0.40;0.20;;;16.60;99.90;;;;;;5057223;28;20633;-69
2021/09/09 02:02:43;;;;;;;0.40;0.20;;;16.40;99.90;;;;;;5057304;28;20177;-69
2021/09/09 02:05:12;;;;;;;0.40;0.20;;;16.40;99.90;;;;;;5057110;28;20195;-69
2021/09/09 02:07:38;;;;;;;0.40;0.20;;;16.40;99.90;;;;;;5056940;28;20269;-69
2021/09/09 02:10:05;;;;;;;0.40;0.20;;;16.40;99.90;;;;;;5056876;28;20856;-69
2021/09/09 02:12:31;;;;;;;0.40;0.20;;;16.50;99.90;;;;;;5056840;28;20263;-69
2021/09/09 02:14:57;;;;;;;0.40;0.10;;;16.50;99.90;;;;;;5056851;28;20510;-69
2021/09/09 02:17:22;;;;;;;0.40;0.20;;;16.50;99.90;;;;;;5056732;28;20896;-69
2021/09/09 02:19:48;;;;;;;0.40;0.20;;;16.30;99.90;;;;;;5056771;28;20176;-69
2021/09/09 02:22:14;;;;;;;0.50;0.50;;;16.20;99.90;;;;;;5056746;28;20216;-69
2021/09/09 02:24:48;;;;;;;0.40;0.20;;;16.30;99.90;;;;;;5056712;28;20264;-69
2021/09/09 02:27:15;;;;;;;0.40;0.20;;;16.30;99.90;;;;;;5056632;28;20182;-69
2021/09/09 02:29:45;;;;;;;0.87;0.87;;;16.40;99.90;;;;;;5056468;28;20430;-69
2021/09/09 02:32:10;;;;;;;0.40;0.20;;;16.30;99.90;;;;;;5056715;28;20423;-69
2021/09/09 02:34:36;;;;;;;0.40;0.20;;;16.30;99.90;;;;;;5057298;28;20427;-69
2021/09/09 02:37:02;;;;;;;0.40;0.20;;;16.30;99.90;;;;;;5056580;28;20200;-69
2021/09/09 02:39:27;;;;;;;1.10;1.10;;;16.30;99.90;;;;;;5056168;28;20617;-69
2021/09/09 02:41:53;;;;;;;0.50;0.50;;;16.30;99.90;;;;;;5056370;28;20661;-69
2021/09/09 02:44:18;;;;;;;0.40;0.20;;;16.10;99.90;;;;;;5056408;28;20161;-69
2021/09/09 02:46:44;;;;;;;0.40;0.20;;;16.10;99.90;;;;;;5056188;28;20243;-69
2021/09/09 02:49:09;;;;;;;11.70;11.10;;;16.00;99.90;;;;;;5056124;28;20181;-69
2021/09/09 02:51:35;;;;;;;0.40;0.20;;;16.10;99.90;;;;;;5056252;28;20173;-69
2021/09/09 02:54:00;;;;;;;0.50;0.20;;;16.10;99.90;;;;;;5056552;28;20201;-69
2021/09/09 02:56:26;;;;;;;0.40;0.20;;;16.00;99.90;;;;;;5056283;28;20211;-69
2021/09/09 02:58:52;;;;;;;0.40;0.20;;;16.00;99.90;;;;;;5055914;28;20215;-69
2021/09/09 03:01:17;;;;;;;9.50;2.67;;;16.00;99.90;;;;;;5054906;28;20216;-69
2021/09/09 03:03:44;;;;;;;1.17;1.10;;;16.00;99.90;;;;;;5055019;28;20215;-69
2021/09/09 03:06:10;;;;;;;0.50;0.47;;;16.00;99.90;;;;;;5054958;28;20512;-70
2021/09/09 03:08:35;;;;;;;0.60;0.50;;;15.90;99.90;;;;;;5054715;28;20601;-69
2021/09/09 03:11:02;;;;;;;0.40;0.10;;;15.80;99.90;;;;;;5055822;28;20521;-69
2021/09/09 03:13:28;;;;;;;0.40;0.20;;;15.90;99.90;;;;;;5055860;28;20694;-69
2021/09/09 03:15:53;;;;;;;0.40;0.10;;;15.90;99.90;;;;;;5055753;28;20510;-68
2021/09/09 03:18:19;;;;;;;0.40;0.27;;;15.90;99.90;;;;;;5055471;28;20454;-68
2021/09/09 03:20:44;;;;;;;0.40;0.20;;;16.00;99.90;;;;;;5055683;28;20221;-68
2021/09/09 03:23:10;;;;;;;0.40;0.17;;;16.00;99.90;;;;;;5055590;28;20268;-68
2021/09/09 03:25:36;;;;;;;0.40;0.20;;;16.20;99.90;;;;;;5055592;28;20620;-68
2021/09/09 03:28:02;;;;;;;0.40;0.20;;;16.20;99.90;;;;;;5055589;28;20177;-68
2021/09/09 03:30:28;;;;;;;0.40;0.20;;;16.20;99.90;;;;;;5055473;28;20521;-68
2021/09/09 03:32:53;;;;;;;0.40;0.20;;;16.20;99.90;;;;;;5054504;28;20431;-68
2021/09/09 03:35:19;;;;;;;0.40;0.20;;;16.20;99.90;;;;;;5055400;28;20185;-71
2021/09/09 03:37:44;;;;;;;0.40;0.20;;;16.10;99.90;;;;;;5055206;28;20192;-71
2021/09/09 03:40:11;;;;;;;0.40;0.20;;;16.00;99.90;;;;;;5055162;28;20183;-71
2021/09/09 03:42:36;;;;;;;0.40;0.20;;;16.10;99.90;;;;;;5055447;28;20610;-71
2021/09/09 03:45:02;;;;;;;0.40;0.20;;;16.10;99.90;;;;;;5054350;28;20435;-70
2021/09/09 03:47:28;;;;;;;0.40;0.20;;;16.10;99.90;;;;;;5055185;28;20181;-71
2021/09/09 03:49:53;;;;;;;0.40;0.20;;;16.10;99.90;;;;;;5055084;28;20438;-71
2021/09/09 03:52:19;;;;;;;0.40;0.20;;;16.10;99.90;;;;;;5054871;28;20184;-70
2021/09/09 03:54:45;;;;;;;0.40;0.20;;;16.10;99.90;;;;;;5055017;28;20219;-71
2021/09/09 03:57:10;;;;;;;0.40;0.20;;;15.90;99.90;;;;;;5054811;28;20181;-70
2021/09/09 03:59:36;;;;;;;0.40;0.20;;;15.90;99.90;;;;;;5054816;28;20204;-70
2021/09/09 04:02:03;;;;;;;0.40;0.20;;;15.80;99.90;;;;;;5053737;28;20201;-71
2021/09/09 04:04:30;;;;;;;0.40;0.20;;;15.90;99.90;;;;;;5054777;28;20268;-71
2021/09/09 04:06:56;;;;;;;0.40;0.20;;;15.80;99.90;;;;;;5054585;28;20825;-70
2021/09/09 04:09:21;;;;;;;0.40;0.20;;;15.80;99.90;;;;;;5054493;28;20959;-71
2021/09/09 04:11:47;;;;;;;0.40;0.20;;;15.70;99.90;;;;;;5054591;28;20523;-71
2021/09/09 04:14:12;;;;;;;0.40;0.20;;;15.70;99.90;;;;;;5054508;28;20233;-72
2021/09/09 04:16:38;;;;;;;0.40;0.17;;;15.60;99.90;;;;;;5054596;28;20191;-71
2021/09/09 04:19:03;;;;;;;0.50;0.30;;;15.50;99.90;;;;;;5054525;28;20272;-71
2021/09/09 04:21:29;;;;;;;0.40;0.20;;;15.50;99.90;;;;;;5054641;28;20201;-71
2021/09/09 04:23:54;;;;;;;0.40;0.20;;;15.50;99.90;;;;;;5054417;28;20740;-70
2021/09/09 04:26:20;;;;;;;0.40;0.20;;;15.40;99.90;;;;;;5054420;28;20172;-70
2021/09/09 04:28:46;;;;;;;0.40;0.20;;;15.50;99.90;;;;;;5054257;28;20226;-71
2021/09/09 04:31:11;;;;;;;0.40;0.20;;;15.50;99.90;;;;;;5054548;28;20649;-71
2021/09/09 04:33:37;;;;;;;0.40;0.10;;;15.60;99.90;;;;;;5054358;28;20192;-71
2021/09/09 04:36:03;;;;;;;0.40;0.20;;;15.80;99.90;;;;;;5054246;28;20192;-71
2021/09/09 04:38:28;;;;;;;0.40;0.10;;;15.70;99.90;;;;;;5053665;28;20180;-71
2021/09/09 04:40:54;;;;;;;0.40;0.10;;;15.70;99.90;;;;;;5053999;28;20754;-68
2021/09/09 04:43:19;;;;;;;0.60;0.50;;;15.80;99.90;;;;;;5054233;28;20606;-68
2021/09/09 04:45:45;;;;;;;0.40;0.20;;;15.70;99.90;;;;;;5054033;28;20181;-68
2021/09/09 04:48:10;;;;;;;0.40;0.20;;;15.60;99.90;;;;;;5054234;28;20663;-68
2021/09/09 04:50:36;;;;;;;0.40;0.20;;;15.50;99.90;;;;;;5053926;28;20591;-69
2021/09/09 04:53:02;;;;;;;0.40;0.20;;;15.60;99.90;;;;;;5054111;28;20177;-69
2021/09/09 04:55:27;;;;;;;0.40;0.30;;;15.70;99.90;;;;;;5053829;28;20187;-69
2021/09/09 04:57:53;;;;;;;0.40;0.20;;;15.80;99.90;;;;;;5053585;28;20253;-69
2021/09/09 05:00:18;;;;;;;0.40;0.20;;;15.90;99.90;;;;;;5053831;28;20176;-72
2021/09/09 05:02:44;;;;;;;0.60;0.50;;;15.90;99.90;;;;;;5053842;28;20537;-73
2021/09/09 05:05:10;;;;;;;0.40;0.10;;;15.80;99.90;;;;;;5053533;28;20227;-72
2021/09/09 05:07:35;;;;;;;0.50;0.20;;;15.80;99.90;;;;;;5053466;28;20211;-72
2021/09/09 05:10:02;;;;;;;0.40;0.20;;;15.90;99.90;;;;;;5053665;28;20185;-72
2021/09/09 05:12:29;;;;;;;1.10;1.10;;;15.80;99.90;;;;;;5053777;28;20239;-72
2021/09/09 05:14:54;;;;;;;0.40;0.20;;;15.80;99.90;;;;;;5053760;28;20446;-71
2021/09/09 05:17:20;;;;;;;0.40;0.20;;;15.70;99.90;;;;;;5053482;28;20510;-71
2021/09/09 05:19:45;;;;;;;0.40;0.10;;;15.70;99.90;;;;;;5055376;28;20564;-72
2021/09/09 05:22:11;;;;;;;2.07;1.37;;;15.80;99.90;;;;;;5054280;28;20273;-72
2021/09/09 05:24:37;;;;;;;2.30;2.13;;;15.90;99.90;;;;;;5055074;28;20180;-71
2021/09/09 05:27:02;;;;;;;0.80;0.80;;;16.20;99.90;;;;;;5054086;28;20196;-69
2021/09/09 05:29:28;;;;;;;0.40;0.20;;;16.70;99.90;;;;;;5053779;28;20173;-69
2021/09/09 05:31:54;;;;;;;1.90;1.77;;;17.30;99.90;;;;;;5053426;28;20273;-69
2021/09/09 05:34:19;;;;;;;1.43;1.33;;;17.30;1.00;;;;;;5053473;28;20188;-68
2021/09/09 05:36:45;;;;;;;1.60;1.50;;;17.00;36.20;;;;;;5052911;28;20238;-69
2021/09/09 05:39:10;;;;;;;1.00;0.90;;;17.10;74.80;;;;;;5053021;28;20586;-69
2021/09/09 05:41:36;;;;;;;0.40;0.20;;;16.80;67.50;;;;;;5053738;28;20212;-71
2021/09/09 05:44:02;;;;;;;0.40;0.30;;;17.00;99.90;;;;;;5053109;28;20572;-72
2021/09/09 05:46:27;;;;;;;0.83;0.80;;;17.90;92.00;;;;;;5053215;28;20637;-72
2021/09/09 05:48:53;;;;;;;0.47;0.40;;;18.50;1.00;;;;;;5052556;28;20427;-71
2021/09/09 05:51:18;;;;;;;4.00;2.13;;;19.10;99.90;;;;;;5052974;28;20181;-72
2021/09/09 05:53:44;;;;;;;1.33;1.23;;;19.50;1.00;;;;;;5052438;28;20207;-72
2021/09/09 05:56:09;;;;;;;1.13;0.83;;;19.60;99.90;;;;;;5052778;28;20637;-72
2021/09/09 05:58:37;;;;;;;4.50;3.03;;;20.10;1.00;;;;;;5052620;28;20208;-71
2021/09/09 06:01:05;;;;;;;1.27;1.17;;;20.30;1.00;;;;;;5052618;28;20205;-72
2021/09/09 06:03:31;;;;;;;1.37;1.30;;;20.30;1.00;;;;;;5052760;28;20423;-72
2021/09/09 06:06:03;;;;;;;7.67;5.03;;;20.30;1.00;;;;;;5053044;28;20494;-72
2021/09/09 06:08:30;;;;;;;1.87;1.77;;;20.10;1.00;;;;;;5052679;28;20622;-72
2021/09/09 06:10:56;;;;;;;1.10;1.00;;;19.90;99.90;;;;;;5051868;28;20569;-72
2021/09/09 06:13:22;;;;;;;5.50;3.03;;;20.00;1.00;;;;;;5053331;28;20462;-72
2021/09/09 06:15:47;;;;;;;1.07;0.87;;;19.90;1.00;;;;;;5053372;28;20185;-72
2021/09/09 06:18:17;;;;;;;0.60;0.57;;;20.40;99.90;;;;;;5053179;28;20804;-69
2021/09/09 06:20:43;;;;;;;1.37;1.27;;;20.80;1.00;;;;;;5052690;28;20205;-69
2021/09/09 06:23:09;;;;;;;5.87;4.27;;;20.80;1.00;;;;;;5053091;28;20419;-69
2021/09/09 06:25:34;;;;;;;0.77;0.70;;;21.10;99.90;;;;;;5053065;28;20437;-69
2021/09/09 06:28:00;;;;;;;1.20;1.10;;;21.10;1.00;;;;;;5052665;28;20177;-68
2021/09/09 06:30:26;;;;;;;0.80;0.73;;;21.00;4.30;;;;;;5052546;28;20515;-68
2021/09/09 06:32:51;;;;;;;1.93;1.83;;;21.30;99.90;;;;;;5052811;28;20212;-69
2021/09/09 06:35:17;;;;;;;0.50;0.43;;;21.20;84.90;;;;;;5052645;28;20192;-72
2021/09/09 06:37:42;;;;;;;3.00;2.90;;;21.30;24.50;;;;;;5052692;28;20242;-71
2021/09/09 06:40:09;;;;;;;0.50;0.20;;;21.40;99.90;;;;;;5055527;28;20192;-71
2021/09/09 06:42:34;;;;;;;0.40;0.23;;;22.00;99.90;;;;;;5056486;28;20227;-72
2021/09/09 06:45:00;;;;;;;1.33;0.77;;;22.20;1.00;;;;;;5056019;28;20427;-72
2021/09/09 06:47:26;;;;;;;0.40;0.20;;;22.00;1.00;;;;;;5055964;28;20173;-72
2021/09/09 06:49:51;;;;;;;1.77;1.43;;;21.20;99.90;;;;;;5056045;28;20238;-71
2021/09/09 06:52:17;;;;;;;5.23;1.70;;;21.10;1.00;;;;;;5056038;28;20192;-72
2021/09/09 06:54:42;;;;;;;1.07;0.97;;;20.20;1.00;;;;;;5056048;28;20625;-69
2021/09/09 06:57:08;;;;;;;0.90;0.90;;;19.10;1.00;;;;;;5054861;28;20193;-69
2021/09/09 06:59:34;;;;;;;2.50;2.30;;;18.60;99.90;;;;;;5055780;28;20692;-69
2021/09/09 07:01:59;;;;;;;2.70;2.37;;;18.50;1.00;;;;;;5055938;28;20218;-69
2021/09/09 07:04:25;;;;;;;0.40;0.20;;;18.70;1.00;;;;;;5055947;28;20208;-69
2021/09/09 07:06:51;;;;;;;2.40;2.13;;;18.80;1.00;;;;;;5055712;28;20626;-69
2021/09/09 07:09:16;;;;;;;0.87;0.87;;;18.70;99.90;;;;;;5055590;28;20181;-69
2021/09/09 07:11:42;;;;;;;4.90;3.30;;;18.70;99.90;;;;;;5055659;28;20189;-69
2021/09/09 07:14:08;;;;;;;1.43;0.77;;;18.70;1.00;;;;;;5055808;28;20258;-69
2021/09/09 07:16:33;;;;;;;0.60;0.60;;;18.60;1.00;;;;;;5055753;28;20195;-69
2021/09/09 07:18:59;;;;;;;0.40;0.20;;;18.60;1.00;;;;;;5056027;28;20177;-71
2021/09/09 07:21:25;;;;;;;2.17;2.00;;;18.60;1.00;;;;;;5055613;28;20287;-71
2021/09/09 07:23:50;;;;;;;2.20;2.00;;;18.50;1.00;;;;;;5055379;28;20181;-72
2021/09/09 07:26:16;;;;;;;0.47;0.40;;;18.40;1.00;;;;;;5055427;28;20195;-71
2021/09/09 07:28:42;;;;;;;0.40;0.10;;;18.40;1.00;;;;;;5054337;28;20180;-71
2021/09/09 07:31:07;;;;;;;0.60;0.50;;;18.40;1.00;;;;;;5055348;28;20181;-72
2021/09/09 07:33:33;;;;;;;2.00;1.07;;;18.50;1.00;;;;;;5055384;28;20368;-72
2021/09/09 07:35:58;;;;;;;5.27;3.33;;;18.60;1.00;;;;;;5055142;28;20637;-72
2021/09/09 07:38:24;;;;;;;2.33;2.23;;;18.60;1.00;;;;;;5055112;28;20191;-72
2021/09/09 07:40:49;;;;;;;9.10;4.47;;;18.60;1.00;;;;;;5055056;28;20208;-72
2021/09/09 07:43:15;;;;;;;6.27;4.43;;;18.50;1.00;;;;;;5055236;28;20605;-69
2021/09/09 07:45:41;;;;;;;0.40;0.20;;;18.70;1.00;;;;;;5055038;28;20177;-68
2021/09/09 07:48:06;;;;;;;1.53;1.10;;;18.80;1.00;;;;;;5054570;28;20183;-68
2021/09/09 07:50:32;;;;;;;3.10;2.90;;;18.80;1.00;;;;;;5054197;28;20181;-68
2021/09/09 07:52:58;;;;;;;1.67;1.57;;;18.80;1.00;;;;;;5054996;28;20193;-68
2021/09/09 07:55:24;;;;;;;4.47;3.50;;;18.80;1.00;;;;;;5054628;28;20173;-68
2021/09/09 07:57:49;;;;;;;3.23;2.33;;;18.80;1.00;;;;;;5054547;28;20189;-68
2021/09/09 08:00:15;;;;;;;0.80;0.70;;;18.80;1.00;;;;;;5054541;28;20431;-68
2021/09/09 08:02:41;;;;;;;2.43;2.23;;;18.80;1.00;;;;;;5054513;28;20250;-69
2021/09/09 08:05:07;;;;;;;3.17;2.47;;;19.10;1.00;;;;;;5054747;28;20510;-68
2021/09/09 08:07:44;;;;;;;0.40;0.20;;;19.30;99.90;;;;;;5054419;28;20204;-69
2021/09/09 08:10:10;;;;;;;0.53;0.40;;;19.50;99.90;;;;;;5054464;28;20959;-69
2021/09/09 08:12:36;;;;;;;1.07;0.97;;;19.60;99.90;;;;;;5054428;28;20459;-69
2021/09/09 08:15:02;;;;;;;0.50;0.30;;;19.70;31.30;;;;;;5054672;28;20427;-69
2021/09/09 08:17:28;;;;;;;0.47;0.20;;;19.90;99.90;;;;;;5054537;28;20843;-69
2021/09/09 08:19:53;;;;;;;2.30;1.33;;;20.20;1.00;;;;;;5054247;28;20744;-69
2021/09/09 08:22:19;;;;;;;0.70;0.50;;;20.40;99.90;;;;;;5054083;28;20213;-69
2021/09/09 08:24:44;;;;;;;1.27;1.17;;;20.50;90.70;;;;;;5054475;28;20173;-69
2021/09/09 08:27:10;;;;;;;0.40;0.20;;;20.50;99.90;;;;;;5053310;28;20513;-69
2021/09/09 08:29:35;;;;;;;1.43;1.33;;;20.70;99.90;;;;;;5054034;28;20386;-69
2021/09/09 08:32:01;;;;;;;0.93;0.80;;;20.70;1.00;;;;;;5053865;28;20265;-69
2021/09/09 08:34:27;;;;;;;1.20;0.70;;;20.70;1.00;;;;;;5053747;28;20226;-69
2021/09/09 08:36:54;;;;;;;1.37;1.27;;;20.60;99.90;;;;;;5054101;28;20719;-69
2021/09/09 08:39:20;;;;;;;0.40;0.17;;;20.60;2.70;;;;;;5054216;28;20884;-69
2021/09/09 08:41:45;;;;;;;1.27;1.17;;;20.90;99.90;;;;;;5054108;28;20466;-69
2021/09/09 08:44:11;;;;;;;4.07;3.77;;;21.00;2.20;;;;;;5052748;28;20435;-69
2021/09/09 08:46:37;;;;;;;4.60;4.33;;;20.90;1.00;;;;;;5053590;28;20169;-72
2021/09/09 08:49:02;;;;;;;2.47;2.10;;;20.80;99.90;;;;;;5053771;28;20188;-69
2021/09/09 08:51:28;;;;;;;1.77;1.33;;;20.80;99.90;;;;;;5053830;28;20191;-69
2021/09/09 08:53:56;;;;;;;1.13;0.87;;;20.80;1.00;;;;;;5053038;28;20260;-71
2021/09/09 08:56:22;;;;;;;3.40;2.90;;;21.10;99.90;;;;;;5053759;28;20176;-71
2021/09/09 08:58:48;;;;;;;5.70;1.93;;;21.00;1.00;;;;;;5053292;28;20443;-69
2021/09/09 09:01:15;;;;;;;2.50;2.30;;;21.20;1.00;;;;;;5052840;28;20310;-69
2021/09/09 09:03:52;;;;;;;2.50;2.30;;;21.30;88.30;;;;;;5053628;28;20256;-72
2021/09/09 09:06:27;;;;;;;2.43;1.10;;;21.50;1.00;;;;;;5053626;28;20738;-72
2021/09/09 09:08:59;;;;;;;1.20;1.10;;;21.60;99.90;;;;;;5054022;28;20511;-69
2021/09/09 09:11:36;;;;;;;0.43;0.20;;;21.70;99.90;;;;;;5053766;28;20457;-71
2021/09/09 09:14:02;;;;;;;0.40;0.20;;;21.80;99.90;;;;;;5053535;28;20423;-72
2021/09/09 09:16:28;;;;;;;1.17;0.77;;;22.10;99.90;;;;;;5053535;28;20509;-73
2021/09/09 09:18:59;;;;;;;0.50;0.47;;;22.00;1.00;;;;;;5053119;28;20427;-69
2021/09/09 09:21:25;;;;;;;1.40;1.30;;;22.10;34.30;;;;;;5053646;28;20455;-69
2021/09/09 09:23:55;;;;;;;3.73;2.20;;;22.20;99.90;;;;;;5053689;28;20416;-70
2021/09/09 09:26:21;;;;;;;1.07;1.07;;;22.10;1.00;;;;;;5052508;28;20535;-71
2021/09/09 09:28:49;;;;;;;0.40;0.30;;;22.10;1.00;;;;;;5052251;28;20437;-69
2021/09/09 09:31:21;;;;;;;2.03;0.40;;;22.10;1.00;;;;;;5053618;28;20264;-69
2021/09/09 09:33:51;;;;;;;0.60;0.50;;;22.20;1.00;;;;;;5053434;28;20427;-68
2021/09/09 09:36:37;;;;;;;1.83;1.50;;;22.40;99.90;;;;;;5053728;28;20435;-69
2021/09/09 09:39:14;;;;;;;2.13;1.93;;;22.60;99.90;;;;;;5053316;28;20431;-69
2021/09/09 09:41:54;;;;;;;0.73;0.73;;;22.60;1.00;;;;;;5053608;28;20462;-72
2021/09/09 09:44:35;;;;;;;4.67;4.27;;;22.70;58.40;;;;;;5053415;28;20454;-69
2021/09/09 09:47:21;;;;;;;0.57;0.30;;;22.60;1.00;;;;;;5053035;28;20892;-71
2021/09/09 09:49:55;;;;;;;2.43;2.30;;;22.70;1.00;;;;;;5052999;28;20520;-71
2021/09/09 09:52:26;;;;;;;0.83;0.83;;;22.80;1.00;;;;;;5053988;28;20932;-70
2021/09/09 09:55:00;;;;;;;1.03;0.83;;;22.90;99.90;;;;;;5053980;28;20515;-69
2021/09/09 09:57:28;;;;;;;0.60;0.30;;;22.90;99.90;;;;;;5053234;28;20473;-69
2021/09/09 09:59:54;;;;;;;3.37;3.17;;;23.20;99.90;;;;;;5052929;28;20439;-69
2021/09/09 10:02:20;;;;;;;1.33;1.23;;;23.50;10.00;;;;;;5052594;28;20565;-69
2021/09/09 10:04:48;;;;;;;0.70;0.70;;;23.60;15.40;;;;;;5053564;28;20618;-70
2021/09/09 10:07:14;;;;;;;3.17;2.00;;;23.40;1.00;;;;;;5053058;28;20477;-69
2021/09/09 10:09:42;;;;;;;1.63;0.93;;;23.20;99.90;;;;;;5052891;28;20884;-69
2021/09/09 10:12:09;;;;;;;0.70;0.70;;;23.40;99.90;;;;;;5052763;28;20773;-69
2021/09/09 10:14:40;;;;;;;2.90;1.03;;;23.60;99.90;;;;;;5056578;28;20895;-71
2021/09/09 10:17:07;;;;;;;0.97;0.57;;;23.30;99.90;;;;;;5056907;28;20419;-72
2021/09/09 10:19:34;;;;;;;3.60;3.13;;;23.60;99.90;;;;;;5056542;28;20423;-71
2021/09/09 10:22:08;;;;;;;0.40;0.20;;;23.70;1.00;;;;;;5056661;28;20521;-72
2021/09/09 10:24:35;;;;;;;0.80;0.70;;;23.80;1.00;;;;;;5056771;28;20904;-72
2021/09/09 10:27:14;;;;;;;0.87;0.67;;;24.00;1.00;;;;;;5055579;28;20434;-73
2021/09/09 10:29:49;;;;;;;0.70;0.70;;;24.20;1.00;;;;;;5056544;28;20477;-73
2021/09/09 10:32:29;;;;;;;2.30;1.60;;;24.30;1.00;;;;;;5056326;28;20430;-72
2021/09/09 10:35:14;;;;;;;2.00;1.77;;;24.30;1.00;;;;;;5056336;28;20433;-72
2021/09/09 10:37:40;;;;;;;1.63;1.27;;;24.20;1.00;;;;;;5055483;28;20916;-72
2021/09/09 10:40:06;;;;;;;0.50;0.30;;;24.30;1.00;;;;;;5056448;28;20434;-73
2021/09/09 10:42:39;;;;;;;0.70;0.60;;;24.40;1.00;;;;;;5055322;28;21029;-72
2021/09/09 10:45:11;;;;;;;2.20;1.70;;;24.50;1.00;;;;;;5056269;28;20427;-70
2021/09/09 10:47:50;;;;;;;3.70;2.77;;;24.40;1.00;;;;;;5056183;28;20411;-71
2021/09/09 10:50:16;;;;;;;0.50;0.40;;;24.40;1.00;;;;;;5055221;28;20434;-72
2021/09/09 10:52:56;;;;;;;0.50;0.43;;;24.60;1.00;;;;;;5056119;28;20494;-72
2021/09/09 10:55:29;;;;;;;0.50;0.17;;;24.60;1.00;;;;;;5061143;28;20188;-72
2021/09/09 10:58:18;;;;;;;0.60;0.60;;;24.70;1.00;;;;;;5059368;28;20497;-71
2021/09/09 11:00:50;;;;;;;2.07;1.07;;;24.90;1.00;;;;;;5055636;28;20455;-69
2021/09/09 11:03:35;;;;;;;2.77;1.37;;;25.00;1.00;;;;;;5055934;28;20506;-71
2021/09/09 11:06:01;;;;;;;1.30;1.20;;;25.10;99.90;;;;;;5056209;28;20485;-70
2021/09/09 11:08:28;;;;;;;0.47;0.23;;;25.20;99.90;;;;;;5055817;28;20915;-69
2021/09/09 11:10:54;;;;;;;0.50;0.20;;;25.10;1.00;;;;;;5056013;28;20423;-70
2021/09/09 11:13:27;;;;;;;0.50;0.20;;;25.20;1.00;;;;;;5055709;28;20931;-69
2021/09/09 11:15:52;;;;;;;0.77;0.63;;;25.40;99.90;;;;;;5055959;28;20258;-69
2021/09/09 11:18:26;;;;;;;1.80;1.67;;;25.20;99.90;;;;;;5055516;28;20900;-69
2021/09/09 11:21:08;;;;;;;0.40;0.20;;;25.00;99.90;;;;;;5056105;28;20250;-72
2021/09/09 11:23:34;;;;;;;1.00;0.80;;;25.00;1.00;;;;;;5055704;28;20415;-72
2021/09/09 11:26:13;;;;;;;0.50;0.20;;;25.00;1.00;;;;;;5054328;28;20431;-70
2021/09/09 11:28:39;;;;;;;2.10;1.97;;;25.20;1.00;;;;;;5055064;28;20434;-69
2021/09/09 11:31:15;;;;;;;1.70;0.77;;;25.30;99.90;;;;;;5055305;28;20419;-69
2021/09/09 11:33:49;;;;;;;0.60;0.30;;;25.30;99.90;;;;;;5055598;28;20427;-69
2021/09/09 11:36:16;;;;;;;0.50;0.40;;;25.40;99.90;;;;;;5055333;28;20515;-69
2021/09/09 11:38:42;;;;;;;0.80;0.73;;;25.30;99.90;;;;;;5055265;28;20427;-72
2021/09/09 11:41:19;;;;;;;0.70;0.70;;;25.60;99.90;;;;;;5055151;28;20493;-69
2021/09/09 11:43:54;;;;;;;1.23;0.83;;;25.70;99.90;;;;;;5055536;28;20429;-69
2021/09/09 11:46:28;;;;;;;1.93;1.83;;;25.70;99.90;;;;;;5055264;28;20454;-69
2021/09/09 11:48:58;;;;;;;0.50;0.20;;;25.70;99.90;;;;;;5054624;28;20958;-72
2021/09/09 11:51:49;;;;;;;1.00;0.50;;;25.70;99.90;;;;;;5055500;28;20423;-72
2021/09/09 11:54:28;;;;;;;2.00;0.83;;;25.90;99.90;;;;;;5053852;28;20900;-72
2021/09/09 11:57:04;;;;;;;2.43;2.27;;;25.90;22.70;;;;;;5054694;28;21140;-72
2021/09/09 11:59:30;;;;;;;0.70;0.57;;;25.90;36.30;;;;;;5054534;28;20460;-72
2021/09/09 12:02:07;;;;;;;4.53;2.10;;;25.90;1.00;;;;;;5054865;28;20504;-72
2021/09/09 12:04:43;;;;;;;1.70;1.23;;;26.00;1.00;;;;;;5055041;28;20419;-70
2021/09/09 12:07:15;;;;;;;4.43;2.23;;;26.00;1.00;;;;;;5054704;28;20477;-76
2021/09/09 12:09:59;;;;;;;2.07;1.80;;;26.00;1.00;;;;;;5054663;28;20438;-72
2021/09/09 12:12:29;;;;;;;0.70;0.57;;;26.10;1.00;;;;;;5054935;28;20431;-70
2021/09/09 12:15:04;;;;;;;1.53;1.20;;;26.00;1.00;;;;;;5054776;28;20716;-72
2021/09/09 12:17:30;;;;;;;1.00;0.70;;;26.10;1.00;;;;;;5055270;28;20518;-72
2021/09/09 12:20:01;;;;;;;2.03;1.40;;;26.30;1.00;;;;;;5054466;28;20825;-72
2021/09/09 12:22:46;;;;;;;1.10;0.83;;;26.30;1.00;;;;;;5054421;28;20489;-72
2021/09/09 12:25:23;;;;;;;1.80;1.70;;;26.40;1.00;;;;;;5054591;28;20423;-72
2021/09/09 12:28:08;;;;;;;1.07;0.97;;;26.50;1.00;;;;;;5054427;28;20755;-72
2021/09/09 12:30:39;;;;;;;0.80;0.50;;;26.50;1.00;;;;;;5054573;28;20740;-71
2021/09/09 12:33:15;;;;;;;2.90;2.77;;;26.40;1.00;;;;;;5054114;28;20477;-72
2021/09/09 12:36:07;;;;;;;1.07;0.90;;;26.50;1.00;;;;;;5054446;28;20423;-70
2021/09/09 12:38:44;;;;;;;0.70;0.37;;;26.70;1.00;;;;;;5053791;28;20431;-69
2021/09/09 12:41:22;;;;;;;1.70;1.60;;;26.70;1.00;;;;;;5054319;28;20477;-73
2021/09/09 12:43:58;;;;;;;9.73;2.73;;;26.80;1.00;;;;;;5053192;28;20438;-72
2021/09/09 12:46:35;;;;;;;0.60;0.60;;;26.70;1.00;;;;;;5054503;28;20886;-73
2021/09/09 12:49:05;;;;;;;0.50;0.23;;;26.80;1.00;;;;;;5053901;28;20433;-72
2021/09/09 12:51:31;;;;;;;1.97;1.47;;;26.90;1.00;;;;;;5053715;28;20746;-73
2021/09/09 12:53:57;;;;;;;0.50;0.20;;;26.80;1.00;;;;;;5054341;28;20485;-69